Lexington, KY (40575)

12:54 PM EST on December 22, 2014 (GMT -0500)
Garden Meadows | Change Station
CLOSE
Current Station
Personal Weather Station
Location: Lexington, KY
Elevation: 965 ft
Nearby Weather Stations

Elev 965 ft 38.10 °N, 84.53 °W | Updated 16 seconds ago

Overcast
Overcast
51.8 °F
Feels Like 51.8 °F
N
4.2
Wind Variable Wind from ENE
Gusts 7.3 mph

Today
High -- | Low -- °F
--% Chance of Precip.
Yesterday
High -- | Low -- °F
Precip. -- in
7:51 AM 5:21 PM
New Moon, 1% visible
Pressure 29.96 in
Visibility 10.0 miles
Clouds Overcast 3300 ft
Dew Point 40 °F
Humidity 64%
Rainfall 0.00 in
Snow Depth Not available.
UV 1 out of 12
Pollen .10 out of 12
Air Quality Not available.
Flu Activity Not available.
METAR KLEX 221654Z 16010KT 10SM OVC033 10/03 A2995 RMK AO2 SLP144 T01000033

More Conditions Fewer Conditions

Pressure 29.96 in
Visibility 10.0 miles
Clouds Overcast 3300 ft
Dew Point 40 °F
Humidity 64%
Rainfall 0.00 in
Snow Depth Not available.
UV 1 out of 12
Pollen .10 out of 12
Air Quality Not available.
Flu Activity Not available.
METAR KLEX 221654Z 16010KT 10SM OVC033 10/03 A2995 RMK AO2 SLP144 T01000033

More Conditions Fewer Conditions

10-Day Weather Forecast

Almanac

Astronomy

Dec. 22, 2014 Rise Set
Actual Time
Civil Twilight
Nautical Twilight
Astronomical Twilight
Moon
Length of Visible Light
Length of Day
Tomorrow will be .
, % of the Moon is Illuminated

Today's Extremes

State Highs State Lows

Community

WunderPhotos

Upload Photos

1,779,655 photos uploaded!

WunderBlogs® & News

Nearby

Air Quality

  Air Quality AQ Index Pollutant
Not available.

Snow Depth

Station Depth Elevation

Earthquake Activity

City Distance Mag. Time & Date
Minimum magnitude displayed is 2.5.

Coastal Water Temperatures

Place Temperature

Nearby Weather Stations